sensor_id;sensor_type;location;lat;lon;timestamp;pressure;altitude;pressure_sealevel;temperature;humidity
8451;BME280;4262;50.980;13.892;2023-05-14T05:02:51;50275.16;;;-142.97;30.62
8451;BME280;4262;50.980;13.892;2023-05-14T05:05:18;50302.44;;;-142.97;31.19
8451;BME280;4262;50.980;13.892;2023-05-14T05:07:45;50265.41;;;-142.97;31.10
8451;BME280;4262;50.980;13.892;2023-05-14T05:10:12;50300.50;;;-142.97;30.76
8451;BME280;4262;50.980;13.892;2023-05-14T05:12:40;50290.75;;;-142.97;30.43
8451;BME280;4262;50.980;13.892;2023-05-14T05:15:07;50302.44;;;-142.97;30.78
8451;BME280;4262;50.980;13.892;2023-05-14T05:17:35;50314.13;;;-142.97;30.56
8451;BME280;4262;50.980;13.892;2023-05-14T05:20:04;50314.13;;;-142.97;30.72
8451;BME280;4262;50.980;13.892;2023-05-14T05:22:33;50294.63;;;-142.97;31.01
8451;BME280;4262;50.980;13.892;2023-05-14T05:25:00;50331.69;;;-142.97;30.79
8451;BME280;4262;50.980;13.892;2023-05-14T05:27:29;50302.44;;;-142.97;30.01
8451;BME280;4262;50.980;13.892;2023-05-14T05:29:56;50298.53;;;-142.97;30.09
8451;BME280;4262;50.980;13.892;2023-05-14T05:32:23;50288.78;;;-142.97;30.13
8451;BME280;4262;50.980;13.892;2023-05-14T05:34:50;50302.44;;;-142.97;29.92
8451;BME280;4262;50.980;13.892;2023-05-14T05:37:18;50302.44;;;-142.97;29.77
8451;BME280;4262;50.980;13.892;2023-05-14T05:39:45;50306.34;;;-142.97;29.81
8451;BME280;4262;50.980;13.892;2023-05-14T05:42:13;50247.84;;;-142.97;29.65
8451;BME280;4262;50.980;13.892;2023-05-14T05:44:39;50238.09;;;-142.97;29.28
8451;BME280;4262;50.980;13.892;2023-05-14T05:47:06;50286.84;;;-142.97;29.29
8451;BME280;4262;50.980;13.892;2023-05-14T05:49:32;50220.56;;;-142.97;29.16
8451;BME280;4262;50.980;13.892;2023-05-14T05:52:01;50243.94;;;-142.97;28.47
8451;BME280;4262;50.980;13.892;2023-05-14T05:54:30;50255.66;;;-142.97;28.16
8451;BME280;4262;50.980;13.892;2023-05-14T05:56:59;50255.66;;;-142.97;27.75
8451;BME280;4262;50.980;13.892;2023-05-14T05:59:26;50255.66;;;-142.97;27.55
8451;BME280;4262;50.980;13.892;2023-05-14T06:01:53;50224.47;;;-142.97;27.72
8451;BME280;4262;50.980;13.892;2023-05-14T06:04:20;50201.06;;;-142.97;27.44
8451;BME280;4262;50.980;13.892;2023-05-14T06:06:46;50232.25;;;-142.97;27.67
8451;BME280;4262;50.980;13.892;2023-05-14T06:09:13;50210.81;;;-142.97;26.95
8451;BME280;4262;50.980;13.892;2023-05-14T06:11:41;50224.47;;;-142.97;27.16
8451;BME280;4262;50.980;13.892;2023-05-14T06:14:08;50240.06;;;-142.97;26.69
8451;BME280;4262;50.980;13.892;2023-05-14T06:16:35;50203.00;;;-142.97;26.68
8451;BME280;4262;50.980;13.892;2023-05-14T06:19:02;50284.91;;;-142.97;26.44
8451;BME280;4262;50.980;13.892;2023-05-14T06:21:29;50281.00;;;-142.97;26.86
8451;BME280;4262;50.980;13.892;2023-05-14T06:23:56;50300.50;;;-142.97;27.07
8451;BME280;4262;50.980;13.892;2023-05-14T06:26:23;50290.75;;;-142.97;27.56
8451;BME280;4262;50.980;13.892;2023-05-14T06:28:51;50277.09;;;-142.97;27.35
8451;BME280;4262;50.980;13.892;2023-05-14T06:31:18;50185.47;;;-142.97;26.67
8451;BME280;4262;50.980;13.892;2023-05-14T06:33:45;50201.06;;;-142.97;27.35
8451;BME280;4262;50.980;13.892;2023-05-14T06:36:12;50218.59;;;-142.97;27.04
8451;BME280;4262;50.980;13.892;2023-05-14T06:38:38;50187.41;;;-142.97;26.49
8451;BME280;4262;50.980;13.892;2023-05-14T06:41:05;50189.38;;;-142.97;26.17
8451;BME280;4262;50.980;13.892;2023-05-14T06:43:32;50191.31;;;-142.97;25.48
8451;BME280;4262;50.980;13.892;2023-05-14T06:46:00;50201.06;;;-142.97;25.57
8451;BME280;4262;50.980;13.892;2023-05-14T06:48:27;50201.06;;;-142.97;25.56
8451;BME280;4262;50.980;13.892;2023-05-14T06:50:55;50247.84;;;-142.97;25.44
8451;BME280;4262;50.980;13.892;2023-05-14T06:53:22;50148.41;;;-142.97;25.71
8451;BME280;4262;50.980;13.892;2023-05-14T06:55:49;50197.16;;;-142.97;24.47
8451;BME280;4262;50.980;13.892;2023-05-14T06:58:15;50265.41;;;-142.97;25.38
8451;BME280;4262;50.980;13.892;2023-05-14T07:00:42;50216.66;;;-142.97;25.65
8451;BME280;4262;50.980;13.892;2023-05-14T07:03:10;50282.94;;;-142.97;25.52
8451;BME280;4262;50.980;13.892;2023-05-14T07:05:37;50267.34;;;-142.97;26.17
8451;BME280;4262;50.980;13.892;2023-05-14T07:08:05;50302.44;;;-142.97;26.20
8451;BME280;4262;50.980;13.892;2023-05-14T07:10:32;50251.75;;;-142.97;26.46
8451;BME280;4262;50.980;13.892;2023-05-14T07:12:59;50312.19;;;-142.97;26.92
8451;BME280;4262;50.980;13.892;2023-05-14T07:15:26;50263.44;;;-142.97;26.75
8451;BME280;4262;50.980;13.892;2023-05-14T07:17:52;50273.19;;;-142.97;27.12
8451;BME280;4262;50.980;13.892;2023-05-14T07:20:21;50263.44;;;-142.97;27.26
8451;BME280;4262;50.980;13.892;2023-05-14T07:22:48;50286.84;;;-142.97;27.14
8451;BME280;4262;50.980;13.892;2023-05-14T07:25:15;50259.56;;;-142.97;27.79
8451;BME280;4262;50.980;13.892;2023-05-14T07:27:42;50263.44;;;-142.97;26.97
8451;BME280;4262;50.980;13.892;2023-05-14T07:30:09;50275.16;;;-142.97;26.77
8451;BME280;4262;50.980;13.892;2023-05-14T07:32:36;50277.09;;;-142.97;27.34
8451;BME280;4262;50.980;13.892;2023-05-14T07:35:03;50279.03;;;-142.97;26.80
8451;BME280;4262;50.980;13.892;2023-05-14T07:37:32;50281.00;;;-142.97;26.96
8451;BME280;4262;50.980;13.892;2023-05-14T07:39:58;50286.84;;;-142.97;26.72
8451;BME280;4262;50.980;13.892;2023-05-14T07:42:25;50249.81;;;-142.97;27.08
8451;BME280;4262;50.980;13.892;2023-05-14T07:44:52;50263.44;;;-142.97;27.09
8451;BME280;4262;50.980;13.892;2023-05-14T07:47:19;50259.56;;;-142.97;27.51
8451;BME280;4262;50.980;13.892;2023-05-14T07:49:45;50247.84;;;-142.97;27.14
8451;BME280;4262;50.980;13.892;2023-05-14T07:52:12;50238.09;;;-142.97;26.34
8451;BME280;4262;50.980;13.892;2023-05-14T07:54:40;50281.00;;;-142.97;26.40
8451;BME280;4262;50.980;13.892;2023-05-14T07:57:07;50251.75;;;-142.97;26.85
8451;BME280;4262;50.980;13.892;2023-05-14T07:59:33;50257.59;;;-142.97;27.29
8451;BME280;4262;50.980;13.892;2023-05-14T08:02:00;50236.16;;;-142.97;26.74
8451;BME280;4262;50.980;13.892;2023-05-14T08:04:27;50242.00;;;-142.97;26.99
8451;BME280;4262;50.980;13.892;2023-05-14T08:06:53;50271.25;;;-142.97;26.91
8451;BME280;4262;50.980;13.892;2023-05-14T08:09:22;50226.41;;;-142.97;27.08
8451;BME280;4262;50.980;13.892;2023-05-14T08:11:50;50259.56;;;-142.97;26.87
8451;BME280;4262;50.980;13.892;2023-05-14T08:14:17;50257.59;;;-142.97;27.15
8451;BME280;4262;50.980;13.892;2023-05-14T08:16:45;50277.09;;;-142.97;27.43
8451;BME280;4262;50.980;13.892;2023-05-14T08:19:14;50275.16;;;-142.97;27.99
8451;BME280;4262;50.980;13.892;2023-05-14T08:21:41;50259.56;;;-142.97;27.86
8451;BME280;4262;50.980;13.892;2023-05-14T08:24:08;50282.94;;;-142.97;27.60
8451;BME280;4262;50.980;13.892;2023-05-14T08:26:35;50279.03;;;-142.97;27.11
8451;BME280;4262;50.980;13.892;2023-05-14T08:29:06;50281.00;;;-142.97;26.68
8451;BME280;4262;50.980;13.892;2023-05-14T08:31:32;50279.03;;;-142.97;27.02
8451;BME280;4262;50.980;13.892;2023-05-14T08:33:59;50282.94;;;-142.97;26.87
8451;BME280;4262;50.980;13.892;2023-05-14T08:36:26;50263.44;;;-142.97;26.85
8451;BME280;4262;50.980;13.892;2023-05-14T08:38:53;50228.34;;;-142.97;27.06
8451;BME280;4262;50.980;13.892;2023-05-14T08:41:19;50253.69;;;-142.97;26.77
8451;BME280;4262;50.980;13.892;2023-05-14T08:43:54;50232.25;;;-142.97;26.09
8451;BME280;4262;50.980;13.892;2023-05-14T08:46:24;50275.16;;;-142.97;26.18
8451;BME280;4262;50.980;13.892;2023-05-14T08:48:56;50282.94;;;-142.97;25.96
8451;BME280;4262;50.980;13.892;2023-05-14T08:51:26;50253.69;;;-142.97;25.66
8451;BME280;4262;50.980;13.892;2023-05-14T08:53:54;50251.75;;;-142.97;25.89
8451;BME280;4262;50.980;13.892;2023-05-14T08:56:21;50238.09;;;-142.97;26.39
8451;BME280;4262;50.980;13.892;2023-05-14T08:58:48;50245.91;;;-142.97;26.63
8451;BME280;4262;50.980;13.892;2023-05-14T09:01:15;50234.19;;;-142.97;27.05
8451;BME280;4262;50.980;13.892;2023-05-14T09:03:44;50230.31;;;-142.97;27.15
8451;BME280;4262;50.980;13.892;2023-05-14T09:06:11;50230.31;;;-142.97;27.37
8451;BME280;4262;50.980;13.892;2023-05-14T09:08:41;50224.47;;;-142.97;27.06
8451;BME280;4262;50.980;13.892;2023-05-14T09:11:08;50234.19;;;-142.97;26.05
8451;BME280;4262;50.980;13.892;2023-05-14T09:13:37;50093.84;;;-142.97;25.91
8451;BME280;4262;50.980;13.892;2023-05-14T09:16:05;50189.38;;;-142.97;25.98
8451;BME280;4262;50.980;13.892;2023-05-14T09:18:34;50175.72;;;-142.97;25.87
8451;BME280;4262;50.980;13.892;2023-05-14T09:21:03;50045.09;;;-142.97;26.04
8451;BME280;4262;50.980;13.892;2023-05-14T09:23:31;50019.75;;;-142.97;25.47
8451;BME280;4262;50.980;13.892;2023-05-14T09:25:58;50043.16;;;-142.97;24.64
8451;BME280;4262;50.980;13.892;2023-05-14T09:28:26;50165.97;;;-142.97;25.16
8451;BME280;4262;50.980;13.892;2023-05-14T09:30:53;50130.88;;;-142.97;24.45
8451;BME280;4262;50.980;13.892;2023-05-14T09:33:27;50167.91;;;-142.97;25.04
8451;BME280;4262;50.980;13.892;2023-05-14T09:35:56;50126.97;;;-142.97;24.26
8451;BME280;4262;50.980;13.892;2023-05-14T09:38:29;50158.16;;;-142.97;24.38
8451;BME280;4262;50.980;13.892;2023-05-14T09:40:56;50115.28;;;-142.97;24.02
8451;BME280;4262;50.980;13.892;2023-05-14T09:43:23;50156.22;;;-142.97;23.99
8451;BME280;4262;50.980;13.892;2023-05-14T09:45:50;50144.53;;;-142.97;23.96
8451;BME280;4262;50.980;13.892;2023-05-14T09:48:19;50047.03;;;-142.97;24.33
8451;BME280;4262;50.980;13.892;2023-05-14T09:50:46;50171.81;;;-142.97;23.69
8451;BME280;4262;50.980;13.892;2023-05-14T09:53:13;50193.25;;;-142.97;24.48
8451;BME280;4262;50.980;13.892;2023-05-14T09:55:41;50220.56;;;-142.97;24.48
8451;BME280;4262;50.980;13.892;2023-05-14T09:58:10;50216.66;;;-142.97;24.76
8451;BME280;4262;50.980;13.892;2023-05-14T10:00:43;50251.75;;;-142.97;25.49
8451;BME280;4262;50.980;13.892;2023-05-14T10:03:12;50255.66;;;-142.97;25.37
8451;BME280;4262;50.980;13.892;2023-05-14T10:05:41;50226.41;;;-142.97;25.50
8451;BME280;4262;50.980;13.892;2023-05-14T10:08:10;50236.16;;;-142.97;25.86
8451;BME280;4262;50.980;13.892;2023-05-14T10:10:39;50253.69;;;-142.97;25.80
8451;BME280;4262;50.980;13.892;2023-05-14T10:13:11;50249.81;;;-142.97;25.67
8451;BME280;4262;50.980;13.892;2023-05-14T10:15:42;50245.91;;;-142.97;25.76
8451;BME280;4262;50.980;13.892;2023-05-14T10:18:17;50236.16;;;-142.97;25.64
8451;BME280;4262;50.980;13.892;2023-05-14T10:20:47;50224.47;;;-142.97;26.03
8451;BME280;4262;50.980;13.892;2023-05-14T10:23:14;50212.75;;;-142.97;25.79
8451;BME280;4262;50.980;13.892;2023-05-14T10:25:41;50236.16;;;-142.97;25.73
8451;BME280;4262;50.980;13.892;2023-05-14T10:28:09;50251.75;;;-142.97;26.17
8451;BME280;4262;50.980;13.892;2023-05-14T10:30:43;50199.13;;;-142.97;26.13
8451;BME280;4262;50.980;13.892;2023-05-14T10:33:11;50193.25;;;-142.97;25.83
8451;BME280;4262;50.980;13.892;2023-05-14T10:35:55;50216.66;;;-142.97;25.65
8451;BME280;4262;50.980;13.892;2023-05-14T10:38:25;50191.31;;;-142.97;25.16
8451;BME280;4262;50.980;13.892;2023-05-14T10:40:58;50212.75;;;-142.97;25.44
8451;BME280;4262;50.980;13.892;2023-05-14T10:43:27;50201.06;;;-142.97;25.06
8451;BME280;4262;50.980;13.892;2023-05-14T10:45:56;50160.13;;;-142.97;24.38
8451;BME280;4262;50.980;13.892;2023-05-14T10:48:24;50173.75;;;-142.97;24.42
8451;BME280;4262;50.980;13.892;2023-05-14T10:50:52;50117.22;;;-142.97;24.12
8451;BME280;4262;50.980;13.892;2023-05-14T10:53:19;50175.72;;;-142.97;25.22
8451;BME280;4262;50.980;13.892;2023-05-14T10:55:46;50201.06;;;-142.97;24.48
8451;BME280;4262;50.980;13.892;2023-05-14T10:58:14;50197.16;;;-142.97;24.93
8451;BME280;4262;50.980;13.892;2023-05-14T11:00:46;50181.56;;;-142.97;24.75
8451;BME280;4262;50.980;13.892;2023-05-14T11:03:14;50191.31;;;-142.97;24.61
8451;BME280;4262;50.980;13.892;2023-05-14T11:05:42;50193.25;;;-142.97;24.44
8451;BME280;4262;50.980;13.892;2023-05-14T11:08:10;50173.75;;;-142.97;24.08
8451;BME280;4262;50.980;13.892;2023-05-14T11:10:40;50167.91;;;-142.97;24.50
8451;BME280;4262;50.980;13.892;2023-05-14T11:13:09;50165.97;;;-142.97;24.18
8451;BME280;4262;50.980;13.892;2023-05-14T11:15:37;50165.97;;;-142.97;23.68
8451;BME280;4262;50.980;13.892;2023-05-14T11:18:11;50179.63;;;-142.97;24.02
8451;BME280;4262;50.980;13.892;2023-05-14T11:20:39;50183.50;;;-142.97;23.50
8451;BME280;4262;50.980;13.892;2023-05-14T11:23:07;50164.03;;;-142.97;23.21
8451;BME280;4262;50.980;13.892;2023-05-14T11:25:34;50164.03;;;-142.97;23.25
8451;BME280;4262;50.980;13.892;2023-05-14T11:28:01;50148.41;;;-142.97;23.20
8451;BME280;4262;50.980;13.892;2023-05-14T11:30:30;50195.22;;;-142.97;23.29
8451;BME280;4262;50.980;13.892;2023-05-14T11:32:56;50203.00;;;-142.97;23.08
8451;BME280;4262;50.980;13.892;2023-05-14T11:35:25;50208.84;;;-142.97;22.95
8451;BME280;4262;50.980;13.892;2023-05-14T11:37:51;50203.00;;;-142.97;23.11
8451;BME280;4262;50.980;13.892;2023-05-14T11:40:20;50222.50;;;-142.97;23.49
8451;BME280;4262;50.980;13.892;2023-05-14T11:42:49;50206.91;;;-142.97;23.33
8451;BME280;4262;50.980;13.892;2023-05-14T11:45:23;50220.56;;;-142.97;23.13
8451;BME280;4262;50.980;13.892;2023-05-14T11:47:51;50208.84;;;-142.97;23.74
8451;BME280;4262;50.980;13.892;2023-05-14T11:50:20;50222.50;;;-142.97;24.86
8451;BME280;4262;50.980;13.892;2023-05-14T11:52:48;50216.66;;;-142.97;23.89
8451;BME280;4262;50.980;13.892;2023-05-14T11:55:15;50236.16;;;-142.97;23.99
8451;BME280;4262;50.980;13.892;2023-05-14T11:57:42;50224.47;;;-142.97;23.66
8451;BME280;4262;50.980;13.892;2023-05-14T12:00:10;50210.81;;;-142.97;23.54
8451;BME280;4262;50.980;13.892;2023-05-14T12:02:38;50212.75;;;-142.97;23.72
8451;BME280;4262;50.980;13.892;2023-05-14T12:05:06;50197.16;;;-142.97;24.08
8451;BME280;4262;50.980;13.892;2023-05-14T12:07:33;50220.56;;;-142.97;23.36
8451;BME280;4262;50.980;13.892;2023-05-14T12:10:03;50204.97;;;-142.97;24.04
8451;BME280;4262;50.980;13.892;2023-05-14T12:12:33;50208.84;;;-142.97;23.81
8451;BME280;4262;50.980;13.892;2023-05-14T12:15:00;50247.84;;;-142.97;23.89
8451;BME280;4262;50.980;13.892;2023-05-14T12:17:27;50220.56;;;-142.97;23.12
8451;BME280;4262;50.980;13.892;2023-05-14T12:19:56;50251.75;;;-142.97;22.83
8451;BME280;4262;50.980;13.892;2023-05-14T12:22:22;50251.75;;;-142.97;24.17
8451;BME280;4262;50.980;13.892;2023-05-14T12:24:53;50220.56;;;-142.97;23.47
8451;BME280;4262;50.980;13.892;2023-05-14T12:27:22;50230.31;;;-142.97;23.22
8451;BME280;4262;50.980;13.892;2023-05-14T12:29:57;50236.16;;;-142.97;23.73
8451;BME280;4262;50.980;13.892;2023-05-14T12:32:24;50230.31;;;-142.97;23.80
8451;BME280;4262;50.980;13.892;2023-05-14T12:34:51;50212.75;;;-142.97;23.45
8451;BME280;4262;50.980;13.892;2023-05-14T12:37:18;50214.72;;;-142.97;23.44
8451;BME280;4262;50.980;13.892;2023-05-14T12:39:47;50238.09;;;-142.97;23.65
8451;BME280;4262;50.980;13.892;2023-05-14T12:42:14;50228.34;;;-142.97;24.12
8451;BME280;4262;50.980;13.892;2023-05-14T12:44:42;50230.31;;;-142.97;24.14
8451;BME280;4262;50.980;13.892;2023-05-14T12:47:09;50249.81;;;-142.97;24.49
8451;BME280;4262;50.980;13.892;2023-05-14T12:49:38;50234.19;;;-142.97;24.12
8451;BME280;4262;50.980;13.892;2023-05-14T12:52:05;50242.00;;;-142.97;24.01
8451;BME280;4262;50.980;13.892;2023-05-14T12:54:31;50232.25;;;-142.97;23.87
8451;BME280;4262;50.980;13.892;2023-05-14T12:56:58;50261.50;;;-142.97;23.54
8451;BME280;4262;50.980;13.892;2023-05-14T12:59:26;50265.41;;;-142.97;23.49
8451;BME280;4262;50.980;13.892;2023-05-14T13:01:55;50273.19;;;-142.97;23.77
8451;BME280;4262;50.980;13.892;2023-05-14T13:04:21;50259.56;;;-142.97;23.45
8451;BME280;4262;50.980;13.892;2023-05-14T13:06:48;50245.91;;;-142.97;23.90
8451;BME280;4262;50.980;13.892;2023-05-14T13:09:14;50257.59;;;-142.97;23.93
8451;BME280;4262;50.980;13.892;2023-05-14T13:11:41;50269.28;;;-142.97;24.16
8451;BME280;4262;50.980;13.892;2023-05-14T13:14:08;50296.59;;;-142.97;24.43
8451;BME280;4262;50.980;13.892;2023-05-14T13:16:35;50281.00;;;-142.97;24.54
8451;BME280;4262;50.980;13.892;2023-05-14T13:19:03;50275.16;;;-142.97;24.92
8451;BME280;4262;50.980;13.892;2023-05-14T13:21:31;50288.78;;;-142.97;24.41
8451;BME280;4262;50.980;13.892;2023-05-14T13:23:58;50273.19;;;-142.97;24.63
8451;BME280;4262;50.980;13.892;2023-05-14T13:26:25;50294.63;;;-142.97;24.63
8451;BME280;4262;50.980;13.892;2023-05-14T13:28:52;50286.84;;;-142.97;24.82
8451;BME280;4262;50.980;13.892;2023-05-14T13:31:19;50281.00;;;-142.97;25.24
8451;BME280;4262;50.980;13.892;2023-05-14T13:33:45;50281.00;;;-142.97;25.40
8451;BME280;4262;50.980;13.892;2023-05-14T13:36:13;50294.63;;;-142.97;24.86
8451;BME280;4262;50.980;13.892;2023-05-14T13:38:40;50282.94;;;-142.97;24.82
8451;BME280;4262;50.980;13.892;2023-05-14T13:41:07;50279.03;;;-142.97;24.91
8451;BME280;4262;50.980;13.892;2023-05-14T13:43:34;50286.84;;;-142.97;24.21
8451;BME280;4262;50.980;13.892;2023-05-14T13:46:02;50271.25;;;-142.97;24.70
8451;BME280;4262;50.980;13.892;2023-05-14T13:48:30;50242.00;;;-142.97;24.02
8451;BME280;4262;50.980;13.892;2023-05-14T13:50:57;50265.41;;;-142.97;24.00
8451;BME280;4262;50.980;13.892;2023-05-14T13:53:25;50247.84;;;-142.97;24.17
8451;BME280;4262;50.980;13.892;2023-05-14T13:55:52;50255.66;;;-142.97;23.93
8451;BME280;4262;50.980;13.892;2023-05-14T13:58:21;50259.56;;;-142.97;24.08
8451;BME280;4262;50.980;13.892;2023-05-14T14:00:48;50257.59;;;-142.97;24.19
8451;BME280;4262;50.980;13.892;2023-05-14T14:03:15;50261.50;;;-142.97;24.15
8451;BME280;4262;50.980;13.892;2023-05-14T14:05:42;50245.91;;;-142.97;24.29
8451;BME280;4262;50.980;13.892;2023-05-14T14:08:09;50220.56;;;-142.97;24.50
8451;BME280;4262;50.980;13.892;2023-05-14T14:10:37;50240.06;;;-142.97;24.19
8451;BME280;4262;50.980;13.892;2023-05-14T14:13:05;50206.91;;;-142.97;24.55
8451;BME280;4262;50.980;13.892;2023-05-14T14:15:32;50226.41;;;-142.97;24.48
8451;BME280;4262;50.980;13.892;2023-05-14T14:17:59;50279.03;;;-142.97;24.58
8451;BME280;4262;50.980;13.892;2023-05-14T14:20:25;50259.56;;;-142.97;24.31
8451;BME280;4262;50.980;13.892;2023-05-14T14:22:53;50222.50;;;-142.97;24.37
8451;BME280;4262;50.980;13.892;2023-05-14T14:25:20;50236.16;;;-142.97;24.66
8451;BME280;4262;50.980;13.892;2023-05-14T14:27:47;50261.50;;;-142.97;24.93
8451;BME280;4262;50.980;13.892;2023-05-14T14:30:15;50249.81;;;-142.97;24.88
8451;BME280;4262;50.980;13.892;2023-05-14T14:32:42;50228.34;;;-142.97;24.98
8451;BME280;4262;50.980;13.892;2023-05-14T14:35:10;50253.69;;;-142.97;24.92
8451;BME280;4262;50.980;13.892;2023-05-14T14:37:37;50255.66;;;-142.97;25.21
8451;BME280;4262;50.980;13.892;2023-05-14T14:40:05;50253.69;;;-142.97;25.76
8451;BME280;4262;50.980;13.892;2023-05-14T14:42:34;50230.31;;;-142.97;25.02
8451;BME280;4262;50.980;13.892;2023-05-14T14:45:03;50247.84;;;-142.97;24.95
8451;BME280;4262;50.980;13.892;2023-05-14T14:47:30;50259.56;;;-142.97;24.79
8451;BME280;4262;50.980;13.892;2023-05-14T14:49:57;50243.94;;;-142.97;25.31
8451;BME280;4262;50.980;13.892;2023-05-14T14:52:25;50243.94;;;-142.97;25.38
8451;BME280;4262;50.980;13.892;2023-05-14T14:54:52;50279.03;;;-142.97;25.54
8451;BME280;4262;50.980;13.892;2023-05-14T14:57:19;50261.50;;;-142.97;25.69
8451;BME280;4262;50.980;13.892;2023-05-14T14:59:48;50259.56;;;-142.97;25.26
8451;BME280;4262;50.980;13.892;2023-05-14T15:02:16;50245.91;;;-142.97;25.06
8451;BME280;4262;50.980;13.892;2023-05-14T15:04:43;50257.59;;;-142.97;24.96
8451;BME280;4262;50.980;13.892;2023-05-14T15:07:09;50240.06;;;-142.97;25.13
8451;BME280;4262;50.980;13.892;2023-05-14T15:09:36;50269.28;;;-142.97;25.57
8451;BME280;4262;50.980;13.892;2023-05-14T15:12:03;50238.09;;;-142.97;25.57
8451;BME280;4262;50.980;13.892;2023-05-14T15:14:31;50249.81;;;-142.97;25.82
8451;BME280;4262;50.980;13.892;2023-05-14T15:16:57;50243.94;;;-142.97;25.96
8451;BME280;4262;50.980;13.892;2023-05-14T15:19:25;50275.16;;;-142.97;25.39
8451;BME280;4262;50.980;13.892;2023-05-14T15:21:52;50279.03;;;-142.97;25.47
8451;BME280;4262;50.980;13.892;2023-05-14T15:24:19;50294.63;;;-142.97;25.91
8451;BME280;4262;50.980;13.892;2023-05-14T15:26:48;50269.28;;;-142.97;25.84
8451;BME280;4262;50.980;13.892;2023-05-14T15:29:14;50273.19;;;-142.97;26.22
8451;BME280;4262;50.980;13.892;2023-05-14T15:31:43;50275.16;;;-142.97;25.52
8451;BME280;4262;50.980;13.892;2023-05-14T15:34:10;50282.94;;;-142.97;25.83
8451;BME280;4262;50.980;13.892;2023-05-14T15:36:38;50306.34;;;-142.97;25.74
8451;BME280;4262;50.980;13.892;2023-05-14T15:39:05;50298.53;;;-142.97;25.67
8451;BME280;4262;50.980;13.892;2023-05-14T15:41:34;50282.94;;;-142.97;26.01
8451;BME280;4262;50.980;13.892;2023-05-14T15:44:01;50265.41;;;-142.97;26.29
8451;BME280;4262;50.980;13.892;2023-05-14T15:46:28;50284.91;;;-142.97;25.93
8451;BME280;4262;50.980;13.892;2023-05-14T15:48:55;50308.28;;;-142.97;26.22
8451;BME280;4262;50.980;13.892;2023-05-14T15:51:23;50277.09;;;-142.97;25.86
8451;BME280;4262;50.980;13.892;2023-05-14T15:53:53;50275.16;;;-142.97;25.87
8451;BME280;4262;50.980;13.892;2023-05-14T15:56:22;50279.03;;;-142.97;26.27
8451;BME280;4262;50.980;13.892;2023-05-14T15:58:48;50284.91;;;-142.97;26.44
8451;BME280;4262;50.980;13.892;2023-05-14T16:01:17;50298.53;;;-142.97;26.47
8451;BME280;4262;50.980;13.892;2023-05-14T16:03:43;50292.69;;;-142.97;27.19
8451;BME280;4262;50.980;13.892;2023-05-14T16:06:10;50304.38;;;-142.97;27.14
8451;BME280;4262;50.980;13.892;2023-05-14T16:08:37;50288.78;;;-142.97;27.11
8451;BME280;4262;50.980;13.892;2023-05-14T16:11:06;50290.75;;;-142.97;28.05
8451;BME280;4262;50.980;13.892;2023-05-14T16:13:32;50298.53;;;-142.97;29.41
8451;BME280;4262;50.980;13.892;2023-05-14T16:16:00;50302.44;;;-142.97;31.34
8451;BME280;4262;50.980;13.892;2023-05-14T16:18:27;50263.44;;;-142.97;31.51
8451;BME280;4262;50.980;13.892;2023-05-14T16:20:54;50296.59;;;-142.97;31.08
8451;BME280;4262;50.980;13.892;2023-05-14T16:23:21;50286.84;;;-142.97;31.19
8451;BME280;4262;50.980;13.892;2023-05-14T16:25:48;50298.53;;;-142.97;31.43
8451;BME280;4262;50.980;13.892;2023-05-14T16:28:16;50282.94;;;-142.97;30.64
8451;BME280;4262;50.980;13.892;2023-05-14T16:30:44;50296.59;;;-142.97;30.59
8451;BME280;4262;50.980;13.892;2023-05-14T16:33:11;50294.63;;;-142.97;29.83
8451;BME280;4262;50.980;13.892;2023-05-14T16:35:38;50286.84;;;-142.97;29.55
8451;BME280;4262;50.980;13.892;2023-05-14T16:38:05;50314.13;;;-142.97;29.63
8451;BME280;4262;50.980;13.892;2023-05-14T16:40:32;50294.63;;;-142.97;30.19
8451;BME280;4262;50.980;13.892;2023-05-14T16:42:59;50288.78;;;-142.97;30.13
8451;BME280;4262;50.980;13.892;2023-05-14T16:45:27;50310.25;;;-142.97;30.50
8451;BME280;4262;50.980;13.892;2023-05-14T16:47:54;50316.09;;;-142.97;30.16
8451;BME280;4262;50.980;13.892;2023-05-14T16:50:21;50292.69;;;-142.97;29.82
8451;BME280;4262;50.980;13.892;2023-05-14T16:52:48;50282.94;;;-142.97;29.82
8451;BME280;4262;50.980;13.892;2023-05-14T16:55:15;50298.53;;;-142.97;29.70
8451;BME280;4262;50.980;13.892;2023-05-14T16:57:41;50300.50;;;-142.97;30.03
8451;BME280;4262;50.980;13.892;2023-05-14T17:00:10;50300.50;;;-142.97;29.90
8451;BME280;4262;50.980;13.892;2023-05-14T17:02:38;50249.81;;;-142.97;30.82
8451;BME280;4262;50.980;13.892;2023-05-14T17:05:06;50277.09;;;-142.97;30.84
8451;BME280;4262;50.980;13.892;2023-05-14T17:07:33;50320.00;;;-142.97;30.61
8451;BME280;4262;50.980;13.892;2023-05-14T17:09:59;50298.53;;;-142.97;30.44
8451;BME280;4262;50.980;13.892;2023-05-14T17:12:26;50282.94;;;-142.97;30.22
8451;BME280;4262;50.980;13.892;2023-05-14T17:14:53;50320.00;;;-142.97;30.13
8451;BME280;4262;50.980;13.892;2023-05-14T17:17:19;50288.78;;;-142.97;31.17
8451;BME280;4262;50.980;13.892;2023-05-14T17:19:48;50281.00;;;-142.97;29.81
8451;BME280;4262;50.980;13.892;2023-05-14T17:22:14;50302.44;;;-142.97;30.33
8451;BME280;4262;50.980;13.892;2023-05-14T17:24:41;50296.59;;;-142.97;29.95
8451;BME280;4262;50.980;13.892;2023-05-14T17:27:07;50277.09;;;-142.97;29.90
8451;BME280;4262;50.980;13.892;2023-05-14T17:29:34;50335.59;;;-142.97;30.30
8451;BME280;4262;50.980;13.892;2023-05-14T17:32:01;50298.53;;;-142.97;29.94
8451;BME280;4262;50.980;13.892;2023-05-14T17:34:29;50286.84;;;-142.97;29.88
8451;BME280;4262;50.980;13.892;2023-05-14T17:36:57;50292.69;;;-142.97;29.95
8451;BME280;4262;50.980;13.892;2023-05-14T17:39:25;50304.38;;;-142.97;29.81
8451;BME280;4262;50.980;13.892;2023-05-14T17:41:54;50294.63;;;-142.97;30.08
8451;BME280;4262;50.980;13.892;2023-05-14T17:44:20;50279.03;;;-142.97;29.96
8451;BME280;4262;50.980;13.892;2023-05-14T17:46:47;50294.63;;;-142.97;30.01
8451;BME280;4262;50.980;13.892;2023-05-14T17:49:15;50302.44;;;-142.97;29.87
8451;BME280;4262;50.980;13.892;2023-05-14T17:51:42;50310.25;;;-142.97;30.11
8451;BME280;4262;50.980;13.892;2023-05-14T17:54:10;50298.53;;;-142.97;30.19